Terminal Aerodrome Forecast
Issued by NWS

Home | Current Version | Previous Version | Text Only | Print | Product List | Glossary On
Versions: 1 2 3 4 5 6 7 8 9 10 11 12 13 14 15 16
000
FTUS44 KLUB 100531
TAFCDS
TAF
KCDS 100531Z 1006/1106 16009KT P6SM FEW015 SCT250
     FM101700 19015KT P6SM SKC=

USA.gov is the U.S. government's official web portal to all federal, state and local government web resources and services.